createdAt,value
2017-08-26T00:00:54.488Z,11.93
2017-08-26T00:02:05.799Z,12.55
2017-08-26T00:03:11.671Z,12.23
2017-08-26T00:04:17.729Z,11.85
2017-08-26T00:05:23.812Z,11.20
2017-08-26T00:06:29.850Z,10.85
2017-08-26T00:07:35.932Z,12.90
2017-08-26T00:08:41.788Z,12.10
2017-08-26T00:09:47.900Z,12.48
2017-08-26T00:10:53.950Z,11.73
2017-08-26T00:11:59.991Z,12.05
2017-08-26T00:13:06.979Z,11.98
2017-08-26T00:14:13.027Z,11.88
2017-08-26T00:15:19.978Z,11.55
2017-08-26T00:16:26.016Z,12.32
2017-08-26T00:17:33.076Z,12.37
2017-08-26T00:18:39.174Z,11.60
2017-08-26T00:19:45.231Z,11.70
2017-08-26T00:20:52.403Z,11.00
2017-08-26T00:21:58.455Z,11.70
2017-08-26T00:23:04.507Z,12.07
2017-08-26T00:24:10.795Z,10.88
2017-08-26T00:25:17.787Z,11.48
2017-08-26T00:26:24.754Z,11.68
2017-08-26T00:27:31.611Z,10.02
2017-08-26T00:28:38.469Z,11.88
2017-08-26T00:29:44.562Z,11.23
2017-08-26T00:30:50.983Z,11.98
2017-08-26T00:31:58.046Z,11.80
2017-08-26T00:33:03.570Z,11.27
2017-08-26T00:34:09.636Z,12.30
2017-08-26T00:35:15.758Z,12.40
2017-08-26T00:36:21.812Z,12.18
2017-08-26T00:37:27.836Z,11.88
2017-08-26T00:38:34.783Z,11.73
2017-08-26T00:39:41.037Z,12.20
2017-08-26T00:40:47.859Z,11.40
2017-08-26T00:41:53.921Z,11.85
2017-08-26T00:42:59.763Z,11.88
2017-08-26T00:44:05.804Z,11.73
2017-08-26T00:45:11.480Z,12.30
2017-08-26T00:46:17.572Z,12.43
2017-08-26T00:47:23.634Z,12.77
2017-08-26T00:48:29.688Z,12.30
2017-08-26T00:49:35.746Z,11.45
2017-08-26T00:50:41.455Z,11.85
2017-08-26T00:51:47.650Z,12.20
2017-08-26T00:52:54.330Z,10.93
2017-08-26T00:54:00.380Z,11.65
2017-08-26T00:55:06.435Z,10.82
2017-08-26T00:56:12.491Z,11.95
2017-08-26T00:57:18.563Z,12.68
2017-08-26T00:58:25.339Z,12.40
2017-08-26T00:59:31.399Z,12.10
2017-08-26T01:00:37.693Z,13.20
2017-08-26T01:01:44.017Z,13.27
2017-08-26T01:02:49.556Z,13.10
2017-08-26T01:03:55.631Z,12.75
2017-08-26T01:05:01.497Z,12.43
2017-08-26T01:06:07.659Z,11.80
2017-08-26T01:07:18.353Z,12.85
2017-08-26T01:08:23.915Z,13.10
2017-08-26T01:09:30.332Z,12.23
2017-08-26T01:10:36.360Z,12.50
2017-08-26T01:11:44.216Z,12.45
2017-08-26T01:12:50.261Z,13.43
2017-08-26T01:13:56.530Z,12.13
2017-08-26T01:15:02.411Z,12.32
2017-08-26T01:16:08.470Z,11.73
2017-08-26T01:17:15.320Z,12.20
2017-08-26T01:18:21.362Z,13.45
2017-08-26T01:19:27.436Z,12.07
2017-08-26T01:20:33.355Z,12.00
2017-08-26T01:21:38.751Z,12.90
2017-08-26T01:22:44.833Z,12.95
2017-08-26T01:23:51.324Z,14.00
2017-08-26T01:24:57.445Z,12.77
2017-08-26T01:26:03.531Z,13.93
2017-08-26T01:27:09.672Z,13.43
2017-08-26T01:28:15.351Z,13.75
2017-08-26T01:29:21.419Z,14.80
2017-08-26T01:30:27.304Z,14.30
2017-08-26T01:31:33.342Z,13.95
2017-08-26T01:32:39.269Z,14.93
2017-08-26T01:33:46.196Z,14.68
2017-08-26T01:34:52.397Z,14.32
2017-08-26T01:35:58.755Z,13.90
2017-08-26T01:37:05.639Z,14.27
2017-08-26T01:38:12.542Z,14.48
2017-08-26T01:39:18.740Z,14.73
2017-08-26T01:40:24.819Z,13.32
2017-08-26T01:41:30.907Z,13.62
2017-08-26T01:42:36.956Z,13.50
2017-08-26T01:43:42.999Z,13.95
2017-08-26T01:44:49.064Z,13.68
2017-08-26T01:45:56.751Z,13.10
2017-08-26T01:47:02.854Z,14.00
2017-08-26T01:48:08.902Z,13.68
2017-08-26T01:49:14.951Z,14.75
2017-08-26T01:50:21.626Z,14.30
2017-08-26T01:51:28.651Z,12.70
2017-08-26T01:52:34.768Z,14.40
2017-08-26T01:53:40.854Z,14.05
2017-08-26T01:54:47.592Z,13.50
2017-08-26T01:55:53.924Z,12.02
2017-08-26T01:57:00.112Z,13.30
2017-08-26T01:58:06.219Z,13.40
2017-08-26T01:59:12.303Z,13.10
2017-08-26T02:00:18.357Z,13.10
2017-08-26T02:01:24.284Z,13.73
2017-08-26T02:02:30.324Z,13.77
2017-08-26T02:03:36.409Z,12.27
2017-08-26T02:04:42.655Z,13.10
2017-08-26T02:05:48.513Z,12.35
2017-08-26T02:06:54.591Z,13.00
2017-08-26T02:08:01.109Z,14.13
2017-08-26T02:09:07.726Z,16.35
2017-08-26T02:10:13.778Z,14.48
2017-08-26T02:11:19.811Z,14.52
2017-08-26T02:12:25.870Z,15.00
2017-08-26T02:13:31.928Z,16.35
2017-08-26T02:14:38.028Z,15.75
2017-08-26T02:15:44.136Z,18.25
2017-08-26T02:16:50.173Z,14.55
2017-08-26T02:17:56.215Z,15.35
2017-08-26T02:19:02.278Z,15.70
2017-08-26T02:20:08.368Z,17.75
2017-08-26T02:21:15.352Z,19.77
2017-08-26T02:22:22.104Z,15.60
2017-08-26T02:23:28.158Z,15.90
2017-08-26T02:24:34.195Z,14.95
2017-08-26T02:25:40.294Z,16.05
2017-08-26T02:26:46.335Z,15.55
2017-08-26T02:27:52.375Z,16.55
2017-08-26T02:28:58.427Z,16.05
2017-08-26T02:30:04.466Z,15.43
2017-08-26T02:31:10.357Z,14.82
2017-08-26T02:32:16.440Z,15.32
2017-08-26T02:33:22.488Z,15.38
2017-08-26T02:34:28.555Z,15.45
2017-08-26T02:35:34.796Z,15.57
2017-08-26T02:36:40.877Z,15.15
2017-08-26T02:37:47.009Z,15.95
2017-08-26T02:38:53.072Z,16.65
2017-08-26T02:39:59.127Z,15.77
2017-08-26T02:41:05.177Z,14.57
2017-08-26T02:42:11.264Z,13.75
2017-08-26T02:43:17.146Z,13.40
2017-08-26T02:44:23.209Z,13.68
2017-08-26T02:45:29.260Z,14.30
2017-08-26T02:46:35.326Z,14.90
2017-08-26T02:47:41.433Z,14.48
2017-08-26T02:48:47.584Z,14.82
2017-08-26T02:49:53.629Z,14.10
2017-08-26T02:50:59.700Z,14.38
2017-08-26T02:52:05.751Z,14.27
2017-08-26T02:53:12.435Z,14.07
2017-08-26T02:54:18.477Z,14.23
2017-08-26T02:55:24.527Z,15.35
2017-08-26T02:56:30.582Z,15.55
2017-08-26T02:57:37.408Z,14.40
2017-08-26T02:58:43.531Z,15.23
2017-08-26T02:59:49.593Z,15.73
2017-08-26T03:00:55.637Z,16.65
2017-08-26T03:02:01.682Z,16.37
2017-08-26T03:03:07.735Z,15.48
2017-08-26T03:04:13.911Z,16.75
2017-08-26T03:05:19.986Z,15.73
2017-08-26T03:06:26.019Z,17.02
2017-08-26T03:07:31.867Z,14.48
2017-08-26T03:08:37.934Z,15.27
2017-08-26T03:09:57.023Z,14.77
2017-08-26T03:11:04.540Z,14.45
2017-08-26T03:12:15.042Z,14.10
2017-08-26T03:13:22.523Z,13.75
2017-08-26T03:14:31.693Z,14.52
2017-08-26T03:15:39.361Z,14.98
2017-08-26T03:16:49.447Z,14.80
2017-08-26T03:18:05.971Z,14.25
2017-08-26T03:19:12.822Z,14.27
2017-08-26T03:20:22.025Z,15.30
2017-08-26T03:21:29.897Z,13.70
2017-08-26T03:22:37.156Z,14.63
2017-08-26T03:23:43.219Z,14.07
2017-08-26T03:24:48.915Z,12.52
2017-08-26T03:25:55.901Z,13.35
2017-08-26T03:27:02.766Z,14.10
2017-08-26T03:28:08.824Z,13.70
2017-08-26T03:29:14.908Z,13.00
2017-08-26T03:30:21.329Z,14.13
2017-08-26T03:31:27.803Z,15.02
2017-08-26T03:32:34.774Z,15.38
2017-08-26T03:33:40.929Z,15.50
2017-08-26T03:34:47.092Z,14.80
2017-08-26T03:35:53.175Z,14.23
2017-08-26T03:37:00.006Z,13.65
2017-08-26T03:38:06.075Z,15.02
2017-08-26T03:39:12.402Z,13.62
2017-08-26T03:40:18.679Z,12.73
2017-08-26T03:41:24.995Z,13.80
2017-08-26T03:42:31.115Z,12.45
2017-08-26T03:43:37.154Z,13.52
2017-08-26T03:44:43.834Z,15.23
2017-08-26T03:45:49.887Z,16.23
2017-08-26T03:46:56.957Z,14.75
2017-08-26T03:48:03.044Z,16.67
2017-08-26T03:49:10.013Z,15.55
2017-08-26T03:50:16.068Z,16.83
2017-08-26T03:51:22.141Z,17.50
2017-08-26T03:52:29.543Z,18.48
2017-08-26T03:53:39.192Z,18.75
2017-08-26T03:54:45.971Z,18.62
2017-08-26T03:55:52.428Z,19.55
2017-08-26T03:56:58.484Z,16.62
2017-08-26T03:58:04.543Z,17.90
2017-08-26T03:59:10.631Z,18.92
2017-08-26T04:00:17.583Z,18.05
2017-08-26T04:01:23.646Z,18.00
2017-08-26T04:02:29.714Z,17.83
2017-08-26T04:03:35.769Z,19.52
2017-08-26T04:04:41.902Z,18.45
2017-08-26T04:05:49.082Z,18.40
2017-08-26T04:06:55.143Z,17.05
2017-08-26T04:08:02.275Z,17.95
2017-08-26T04:09:08.312Z,17.83
2017-08-26T04:10:17.193Z,16.30
2017-08-26T04:11:26.950Z,17.05
2017-08-26T04:12:39.510Z,17.08
2017-08-26T04:13:47.720Z,17.10
2017-08-26T04:14:55.938Z,18.55
2017-08-26T04:16:03.255Z,18.30
2017-08-26T04:17:12.341Z,18.40
2017-08-26T04:18:19.167Z,16.98
2017-08-26T04:19:26.190Z,16.25
2017-08-26T04:20:34.828Z,15.70
2017-08-26T04:21:41.638Z,17.62
2017-08-26T04:22:51.754Z,17.23
2017-08-26T04:24:03.162Z,17.42
2017-08-26T04:25:12.938Z,17.40
2017-08-26T04:26:19.742Z,19.40
2017-08-26T04:27:27.482Z,20.33
2017-08-26T04:28:37.518Z,20.00
2017-08-26T04:29:45.682Z,21.83
2017-08-26T04:30:53.549Z,20.42
2017-08-26T04:32:02.726Z,21.25
2017-08-26T04:33:09.292Z,18.95
2017-08-26T04:34:17.118Z,18.17
2017-08-26T04:35:24.950Z,18.27
2017-08-26T04:36:33.724Z,17.90
2017-08-26T04:37:44.984Z,17.08
2017-08-26T04:38:55.937Z,18.62
2017-08-26T04:40:04.191Z,19.85
2017-08-26T04:41:14.507Z,19.90
2017-08-26T04:42:24.227Z,20.40
2017-08-26T04:43:32.154Z,21.17
2017-08-26T04:44:40.414Z,21.90
2017-08-26T04:45:52.210Z,19.50
2017-08-26T04:46:58.514Z,18.77
2017-08-26T04:48:06.231Z,19.42
2017-08-26T04:49:15.292Z,18.35
2017-08-26T04:50:24.677Z,17.85
2017-08-26T04:51:31.317Z,19.35
2017-08-26T04:52:40.717Z,20.77
2017-08-26T04:53:49.166Z,18.33
2017-08-26T04:54:57.109Z,20.30
2017-08-26T04:56:07.097Z,20.12
2017-08-26T04:57:13.969Z,20.62
2017-08-26T04:58:22.632Z,19.42
2017-08-26T04:59:31.131Z,19.95
2017-08-26T05:00:38.769Z,20.20
2017-08-26T05:01:45.592Z,17.42
2017-08-26T05:02:56.652Z,18.37
2017-08-26T05:04:03.915Z,18.75
2017-08-26T05:05:11.634Z,19.37
2017-08-26T05:06:18.455Z,18.75
2017-08-26T05:07:27.706Z,18.80
2017-08-26T05:08:40.371Z,17.10
2017-08-26T05:09:48.917Z,17.80
2017-08-26T05:10:58.819Z,18.77
2017-08-26T05:12:08.270Z,16.85
2017-08-26T05:13:16.125Z,17.25
2017-08-26T05:14:23.741Z,17.25
2017-08-26T05:15:30.038Z,18.33
2017-08-26T05:16:39.286Z,17.40
2017-08-26T05:17:45.857Z,19.20
2017-08-26T05:18:51.911Z,17.42
2017-08-26T05:19:58.737Z,16.75
2017-08-26T05:21:05.506Z,17.70
2017-08-26T05:22:12.654Z,17.50
2017-08-26T05:23:19.523Z,18.12
2017-08-26T05:24:25.576Z,17.77
2017-08-26T05:25:33.488Z,17.60
2017-08-26T05:26:39.833Z,18.17
2017-08-26T05:27:45.912Z,18.33
2017-08-26T05:28:51.942Z,18.25
2017-08-26T05:29:57.970Z,18.08
2017-08-26T05:31:04.026Z,18.80
2017-08-26T05:32:10.888Z,16.58
2017-08-26T05:33:16.820Z,17.27
2017-08-26T05:34:22.758Z,16.95
2017-08-26T05:35:28.791Z,17.92
2017-08-26T05:36:34.833Z,18.95
2017-08-26T05:37:41.863Z,17.35
2017-08-26T05:38:48.039Z,19.73
2017-08-26T05:39:54.147Z,18.95
2017-08-26T05:41:00.218Z,19.45
2017-08-26T05:42:06.984Z,18.48
2017-08-26T05:43:13.123Z,18.00
2017-08-26T05:44:20.172Z,19.30
2017-08-26T05:45:26.067Z,20.05
2017-08-26T05:46:32.377Z,20.08
2017-08-26T05:47:40.294Z,21.08
2017-08-26T05:48:47.976Z,21.95
2017-08-26T05:49:54.243Z,22.85
2017-08-26T05:51:02.299Z,22.75
2017-08-26T05:52:13.248Z,22.67
2017-08-26T05:53:20.404Z,22.33
2017-08-26T05:54:26.546Z,21.23
2017-08-26T05:55:33.350Z,22.77
2017-08-26T05:56:39.730Z,22.08
2017-08-26T05:57:49.175Z,21.40
2017-08-26T05:58:57.047Z,22.45
2017-08-26T06:00:05.288Z,23.90
2017-08-26T06:01:11.454Z,23.95
2017-08-26T06:02:17.496Z,24.35
2017-08-26T06:03:24.069Z,22.45
2017-08-26T06:04:30.101Z,23.80
2017-08-26T06:05:37.973Z,21.58
2017-08-26T06:06:44.067Z,21.15
2017-08-26T06:07:50.108Z,21.62
2017-08-26T06:08:56.150Z,22.52
2017-08-26T06:10:02.659Z,23.60
2017-08-26T06:11:08.718Z,23.48
2017-08-26T06:12:15.407Z,24.45
2017-08-26T06:13:21.460Z,24.23
2017-08-26T06:14:27.506Z,24.70
2017-08-26T06:15:36.265Z,23.20
2017-08-26T06:16:42.390Z,24.77
2017-08-26T06:17:48.568Z,23.62
2017-08-26T06:18:54.623Z,27.15
2017-08-26T06:20:00.671Z,25.77
2017-08-26T06:21:06.179Z,24.75
2017-08-26T06:22:12.233Z,24.25
2017-08-26T06:23:18.299Z,26.73
2017-08-26T06:24:24.355Z,23.10
2017-08-26T06:25:30.416Z,24.48
2017-08-26T06:26:37.180Z,27.05
2017-08-26T06:27:43.235Z,24.05
2017-08-26T06:28:49.346Z,25.70
2017-08-26T06:29:55.396Z,23.95
2017-08-26T06:31:01.456Z,24.90
2017-08-26T06:32:07.516Z,24.50
2017-08-26T06:33:13.572Z,25.60
2017-08-26T06:34:19.649Z,25.70
2017-08-26T06:35:25.775Z,25.55
2017-08-26T06:36:31.811Z,27.00
2017-08-26T06:37:37.858Z,26.45
2017-08-26T06:38:43.906Z,25.85
2017-08-26T06:39:49.987Z,26.35
2017-08-26T06:40:56.031Z,28.30
2017-08-26T06:42:02.085Z,30.08
2017-08-26T06:43:08.160Z,29.95
2017-08-26T06:44:14.221Z,28.55
2017-08-26T06:45:20.327Z,27.13
2017-08-26T06:46:26.367Z,26.50
2017-08-26T06:47:32.415Z,25.20
2017-08-26T06:48:38.476Z,25.90
2017-08-26T06:49:44.541Z,27.27
2017-08-26T06:50:50.620Z,29.17
2017-08-26T06:51:56.370Z,27.42
2017-08-26T06:53:35.183Z,26.52
2017-08-26T06:54:47.873Z,27.02
2017-08-26T06:55:54.015Z,27.80
2017-08-26T06:57:00.125Z,25.77
2017-08-26T06:58:06.249Z,27.23
2017-08-26T06:59:12.347Z,28.17
2017-08-26T07:00:18.404Z,28.05
2017-08-26T07:01:27.815Z,27.52
2017-08-26T07:02:35.180Z,26.87
2017-08-26T07:03:41.343Z,26.55
2017-08-26T07:04:50.865Z,27.90
2017-08-26T07:05:57.756Z,26.98
2017-08-26T07:07:05.457Z,28.05
2017-08-26T07:08:12.658Z,27.45
2017-08-26T07:09:19.485Z,25.65
2017-08-26T07:10:27.422Z,26.73
2017-08-26T07:11:34.249Z,27.00
2017-08-26T07:12:41.906Z,29.20
2017-08-26T07:13:49.504Z,28.17
2017-08-26T07:14:56.670Z,29.17
2017-08-26T07:16:03.268Z,30.83
2017-08-26T07:17:11.050Z,29.00
2017-08-26T07:18:18.966Z,29.40
2017-08-26T07:19:26.766Z,27.90
2017-08-26T07:20:33.233Z,28.08
2017-08-26T07:21:41.695Z,31.10
2017-08-26T07:22:49.817Z,30.35
2017-08-26T07:23:57.298Z,30.55
2017-08-26T07:25:04.699Z,30.42
2017-08-26T07:26:10.748Z,32.25
2017-08-26T07:27:18.071Z,30.73
2017-08-26T07:28:25.408Z,30.55
2017-08-26T07:29:32.210Z,30.75
2017-08-26T07:30:39.326Z,30.45
2017-08-26T07:31:47.041Z,30.10
2017-08-26T07:32:56.129Z,29.08
2017-08-26T07:34:03.546Z,30.45
2017-08-26T07:35:10.515Z,28.33
2017-08-26T07:36:18.296Z,30.20
2017-08-26T07:37:26.131Z,29.67
2017-08-26T07:38:33.056Z,30.35
2017-08-26T07:39:40.250Z,34.45
2017-08-26T07:40:48.037Z,32.35
2017-08-26T07:41:56.086Z,33.42
2017-08-26T07:43:03.446Z,35.10
2017-08-26T07:44:10.602Z,32.35
2017-08-26T07:45:18.611Z,32.83
2017-08-26T07:46:25.932Z,33.38
2017-08-26T07:47:31.978Z,30.60
2017-08-26T07:48:38.039Z,31.65
2017-08-26T07:49:46.215Z,31.73
2017-08-26T07:50:53.748Z,32.00
2017-08-26T07:52:01.626Z,33.00
2017-08-26T07:53:10.028Z,32.50
2017-08-26T07:54:18.280Z,30.92
2017-08-26T07:55:27.040Z,31.33
2017-08-26T07:56:34.437Z,29.77
2017-08-26T07:57:41.157Z,30.30
2017-08-26T07:58:47.258Z,31.15
2017-08-26T07:59:55.096Z,30.80
2017-08-26T08:01:04.525Z,30.70
2017-08-26T08:02:11.277Z,30.90
2017-08-26T08:03:18.161Z,30.05
2017-08-26T08:04:27.804Z,32.55
2017-08-26T08:05:37.185Z,31.87
2017-08-26T08:06:43.596Z,30.33
2017-08-26T08:07:50.091Z,31.90
2017-08-26T08:09:01.696Z,34.45
2017-08-26T08:10:09.496Z,33.50
2017-08-26T08:11:17.856Z,33.47
2017-08-26T08:12:25.766Z,33.90
2017-08-26T08:13:31.953Z,33.63
2017-08-26T08:14:39.344Z,31.50
2017-08-26T08:15:47.145Z,32.40
2017-08-26T08:16:56.133Z,32.00
2017-08-26T08:18:05.029Z,30.88
2017-08-26T08:19:13.644Z,30.00
2017-08-26T08:20:21.210Z,31.33
2017-08-26T08:21:27.856Z,30.77
2017-08-26T08:22:35.341Z,31.62
2017-08-26T08:23:44.667Z,30.50
2017-08-26T08:24:52.897Z,30.80
2017-08-26T08:26:03.592Z,30.73
2017-08-26T08:27:12.014Z,29.20
2017-08-26T08:28:19.530Z,31.92
2017-08-26T08:29:28.214Z,29.52
2017-08-26T08:30:36.373Z,30.98
2017-08-26T08:31:44.215Z,29.42
2017-08-26T08:32:53.456Z,31.10
2017-08-26T08:34:00.129Z,29.80
2017-08-26T08:35:07.700Z,31.00
2017-08-26T08:38:29.513Z,30.70
2017-08-26T08:39:39.655Z,29.70
2017-08-26T08:40:47.668Z,29.95
2017-08-26T08:41:56.156Z,31.83
2017-08-26T08:43:03.463Z,31.90
2017-08-26T08:44:09.815Z,32.25
2017-08-26T08:45:17.969Z,32.90
2017-08-26T08:46:24.548Z,33.13
2017-08-26T08:47:30.863Z,35.33
2017-08-26T08:48:39.027Z,35.60
2017-08-26T08:49:45.410Z,34.95
2017-08-26T08:50:51.519Z,33.65
2017-08-26T08:51:57.580Z,33.35
2017-08-26T08:53:03.612Z,34.00
2017-08-26T08:54:09.665Z,31.27
2017-08-26T08:55:15.499Z,33.10
2017-08-26T08:56:21.391Z,32.55
2017-08-26T08:57:27.261Z,31.08
2017-08-26T08:58:33.318Z,33.10
2017-08-26T08:59:39.392Z,33.15
2017-08-26T09:00:45.095Z,31.70
2017-08-26T09:01:51.158Z,33.15
2017-08-26T09:02:57.205Z,36.67
2017-08-26T09:04:03.252Z,35.65
2017-08-26T09:05:09.333Z,35.30
2017-08-26T09:06:15.384Z,35.47
2017-08-26T09:07:21.637Z,37.25
2017-08-26T09:08:27.683Z,36.47
2017-08-26T09:09:33.768Z,38.65
2017-08-26T09:10:39.932Z,38.10
2017-08-26T09:11:45.978Z,38.75
2017-08-26T09:12:52.095Z,38.00
2017-08-26T09:13:58.174Z,38.92
2017-08-26T09:15:04.248Z,35.75
2017-08-26T09:16:10.311Z,36.25
2017-08-26T09:17:16.386Z,35.95
2017-08-26T09:18:22.494Z,33.97
2017-08-26T09:19:28.557Z,37.10
2017-08-26T09:20:34.591Z,36.05
2017-08-26T09:21:40.640Z,32.72
2017-08-26T09:22:46.496Z,35.00
2017-08-26T09:23:52.576Z,35.00
2017-08-26T09:24:58.638Z,36.22
2017-08-26T09:26:05.807Z,36.50
2017-08-26T09:27:11.852Z,36.22
2017-08-26T09:28:17.894Z,34.33
2017-08-26T09:29:23.987Z,33.30
2017-08-26T09:30:30.062Z,35.92
2017-08-26T09:31:36.115Z,36.50
2017-08-26T09:32:42.202Z,36.08
2017-08-26T09:33:49.224Z,34.22
2017-08-26T09:34:55.288Z,36.63
2017-08-26T09:36:01.346Z,35.67
2017-08-26T09:37:07.405Z,35.33
2017-08-26T09:38:13.439Z,34.83
2017-08-26T09:39:19.502Z,34.00
2017-08-26T09:40:25.636Z,33.70
2017-08-26T09:41:31.476Z,32.78
2017-08-26T09:42:37.502Z,32.40
2017-08-26T09:43:43.559Z,33.05
2017-08-26T09:44:49.594Z,29.77
2017-08-26T09:45:55.668Z,28.83
2017-08-26T09:47:01.707Z,28.15
2017-08-26T09:48:07.789Z,29.65
2017-08-26T09:49:13.664Z,30.30
2017-08-26T09:50:19.714Z,29.27
2017-08-26T09:51:25.639Z,30.73
2017-08-26T09:52:31.674Z,29.02
2017-08-26T09:53:37.733Z,32.25
2017-08-26T09:54:43.777Z,29.20
2017-08-26T09:55:49.832Z,28.48
2017-08-26T09:56:55.910Z,28.12
2017-08-26T09:58:01.977Z,28.92
2017-08-26T09:59:08.014Z,28.25
2017-08-26T10:00:14.067Z,30.75
2017-08-26T10:01:20.103Z,29.67
2017-08-26T10:02:26.220Z,31.05
2017-08-26T10:03:32.272Z,29.73
2017-08-26T10:04:38.332Z,32.08
2017-08-26T10:05:44.376Z,31.17
2017-08-26T10:06:50.417Z,31.85
2017-08-26T10:07:56.538Z,29.27
2017-08-26T10:09:02.587Z,29.25
2017-08-26T10:10:08.451Z,27.70
2017-08-26T10:11:14.505Z,27.87
2017-08-26T10:12:20.611Z,28.33
2017-08-26T10:13:26.710Z,28.40
2017-08-26T10:14:32.767Z,29.02
2017-08-26T10:15:38.805Z,30.80
2017-08-26T10:16:44.850Z,26.83
2017-08-26T10:17:50.913Z,25.23
2017-08-26T10:18:56.990Z,26.70
2017-08-26T10:20:03.083Z,26.37
2017-08-26T10:21:09.148Z,25.15
2017-08-26T10:22:15.195Z,27.90
2017-08-26T10:23:21.047Z,25.40
2017-08-26T10:24:27.112Z,26.35
2017-08-26T10:25:33.165Z,27.48
2017-08-26T10:26:39.201Z,30.05
2017-08-26T10:27:45.281Z,27.90
2017-08-26T10:28:51.343Z,28.65
2017-08-26T10:29:57.294Z,26.80
2017-08-26T10:31:03.172Z,29.90
2017-08-26T10:32:09.027Z,28.17
2017-08-26T10:33:15.496Z,27.27
2017-08-26T10:34:21.363Z,27.20
2017-08-26T10:35:27.549Z,28.38
2017-08-26T10:36:33.425Z,27.52
2017-08-26T10:37:39.296Z,27.27
2017-08-26T10:38:45.143Z,27.17
2017-08-26T10:39:51.017Z,26.62
2017-08-26T10:40:56.923Z,26.85
2017-08-26T10:42:02.820Z,26.85
2017-08-26T10:43:08.681Z,28.30
2017-08-26T10:44:14.544Z,24.50
2017-08-26T10:45:20.389Z,23.08
2017-08-26T10:46:26.282Z,22.92
2017-08-26T10:47:32.258Z,19.95
2017-08-26T10:48:37.913Z,18.30
2017-08-26T10:49:43.570Z,15.43
2017-08-26T10:50:49.431Z,14.52
2017-08-26T10:51:55.334Z,15.43
2017-08-26T10:53:01.186Z,16.45
2017-08-26T10:54:07.246Z,16.92
2017-08-26T10:55:13.309Z,17.73
2017-08-26T10:56:19.146Z,18.83
2017-08-26T10:57:25.901Z,17.67
2017-08-26T10:58:31.766Z,17.60
2017-08-26T10:59:37.815Z,17.30
2017-08-26T11:00:43.870Z,20.05
2017-08-26T11:01:49.915Z,17.80
2017-08-26T11:02:56.011Z,17.45
2017-08-26T11:04:01.867Z,16.23
2017-08-26T11:05:07.749Z,16.48
2017-08-26T11:06:13.802Z,14.65
2017-08-26T11:07:19.871Z,16.12
2017-08-26T11:08:25.961Z,17.08
2017-08-26T11:09:32.012Z,17.15
2017-08-26T11:10:38.058Z,16.77
2017-08-26T11:11:44.124Z,18.90
2017-08-26T11:12:50.185Z,16.30
2017-08-26T11:13:56.251Z,18.55
2017-08-26T11:15:02.307Z,15.73
2017-08-26T11:16:08.355Z,14.80
2017-08-26T11:17:14.416Z,15.40
2017-08-26T11:18:20.494Z,13.93
2017-08-26T11:19:26.604Z,14.60
2017-08-26T11:20:32.456Z,16.33
2017-08-26T11:21:38.487Z,16.75
2017-08-26T11:22:44.337Z,15.68
2017-08-26T11:23:50.412Z,15.13
2017-08-26T11:24:56.503Z,15.35
2017-08-26T11:26:02.564Z,13.90
2017-08-26T11:27:08.414Z,12.48
2017-08-26T11:28:14.564Z,13.68
2017-08-26T11:29:20.618Z,15.57
2017-08-26T11:30:26.723Z,14.82
2017-08-26T11:31:32.786Z,13.68
2017-08-26T11:32:38.880Z,14.40
2017-08-26T11:33:44.935Z,13.52
2017-08-26T11:34:50.799Z,14.07
2017-08-26T11:35:56.868Z,13.52
2017-08-26T11:37:02.943Z,11.73
2017-08-26T11:38:08.995Z,11.50
2017-08-26T11:39:15.050Z,11.45
2017-08-26T11:40:21.114Z,10.18
2017-08-26T11:41:27.213Z,9.57
2017-08-26T11:42:33.271Z,10.00
2017-08-26T11:43:39.323Z,10.43
2017-08-26T11:44:45.375Z,10.95
2017-08-26T11:45:51.438Z,10.75
2017-08-26T11:46:57.218Z,9.73
2017-08-26T11:48:03.314Z,10.43
2017-08-26T11:49:09.359Z,8.77
2017-08-26T11:50:15.198Z,8.70
2017-08-26T11:51:21.251Z,11.35
2017-08-26T11:52:27.399Z,10.25
2017-08-26T11:53:33.470Z,11.38
2017-08-26T11:54:40.434Z,10.10
2017-08-26T11:55:46.538Z,8.30
2017-08-26T11:56:52.607Z,9.65
2017-08-26T11:57:58.737Z,10.57
2017-08-26T11:59:06.568Z,11.68
2017-08-26T12:00:14.090Z,10.23
2017-08-26T12:01:23.398Z,9.77
2017-08-26T12:02:31.434Z,10.52
2017-08-26T12:03:39.549Z,12.98
2017-08-26T12:04:48.062Z,12.65
2017-08-26T12:05:57.142Z,12.45
2017-08-26T12:07:06.904Z,11.57
2017-08-26T12:08:18.934Z,9.38
2017-08-26T12:09:26.483Z,9.60
2017-08-26T12:10:33.394Z,9.65
2017-08-26T12:11:40.420Z,8.57
2017-08-26T12:12:46.475Z,8.18
2017-08-26T12:13:52.979Z,7.93
2017-08-26T12:14:59.552Z,7.18
2017-08-26T12:16:05.962Z,7.12
2017-08-26T12:17:13.972Z,7.30
2017-08-26T12:18:22.434Z,7.90
2017-08-26T12:19:30.855Z,7.95
2017-08-26T12:20:40.215Z,7.87
2017-08-26T12:21:49.251Z,6.18
2017-08-26T12:22:56.518Z,6.75
2017-08-26T12:24:02.937Z,6.47
2017-08-26T12:25:10.535Z,7.20
2017-08-26T12:26:20.268Z,6.40
2017-08-26T12:27:26.780Z,7.12
2017-08-26T12:28:34.743Z,6.72
2017-08-26T12:29:42.843Z,6.40
2017-08-26T12:30:48.964Z,6.95
2017-08-26T12:31:59.632Z,7.62
2017-08-26T12:33:05.760Z,7.47
2017-08-26T12:34:11.790Z,7.32
2017-08-26T12:35:17.829Z,7.62
2017-08-26T12:36:23.868Z,7.35
2017-08-26T12:37:29.954Z,7.00
2017-08-26T12:38:35.987Z,6.95
2017-08-26T12:39:42.007Z,8.27
2017-08-26T12:40:48.116Z,7.80
2017-08-26T12:41:53.948Z,7.60
2017-08-26T12:43:00.021Z,7.30
2017-08-26T12:44:06.086Z,7.95
2017-08-26T12:45:12.152Z,7.20
2017-08-26T12:46:18.184Z,7.05
2017-08-26T12:47:24.219Z,7.55
2017-08-26T12:48:30.317Z,6.90
2017-08-26T12:49:36.141Z,6.32
2017-08-26T12:50:42.028Z,6.93
2017-08-26T12:51:47.929Z,7.05
2017-08-26T12:52:53.774Z,7.55
2017-08-26T12:53:59.659Z,8.73
2017-08-26T12:55:05.496Z,7.50
2017-08-26T12:56:11.340Z,8.38
2017-08-26T12:57:17.159Z,7.30
2017-08-26T12:58:23.000Z,8.30
2017-08-26T12:59:28.851Z,7.70
2017-08-26T13:00:34.666Z,7.60
2017-08-26T13:01:40.511Z,7.80
2017-08-26T13:02:46.339Z,8.73
2017-08-26T13:03:52.169Z,7.57
2017-08-26T13:04:58.018Z,7.07
2017-08-26T13:06:03.864Z,7.70
2017-08-26T13:07:09.911Z,7.65
2017-08-26T13:08:15.745Z,7.07
2017-08-26T13:09:21.572Z,7.45
2017-08-26T13:10:27.443Z,7.10
2017-08-26T13:11:33.267Z,6.80
2017-08-26T13:12:39.103Z,7.12
2017-08-26T13:13:44.932Z,7.80
2017-08-26T13:14:50.753Z,6.45
2017-08-26T13:15:56.344Z,6.33
2017-08-26T13:17:01.896Z,6.20
2017-08-26T13:18:07.727Z,5.75
2017-08-26T13:19:13.564Z,5.78
2017-08-26T13:20:19.406Z,5.37
2017-08-26T13:21:25.296Z,6.35
2017-08-26T13:22:30.835Z,5.90
2017-08-26T13:23:36.694Z,6.37
2017-08-26T13:24:42.557Z,6.28
2017-08-26T13:25:48.455Z,5.45
2017-08-26T13:26:54.584Z,6.10
2017-08-26T13:28:00.412Z,7.03
2017-08-26T13:29:05.963Z,6.13
2017-08-26T13:30:11.835Z,6.28
2017-08-26T13:31:17.671Z,5.32
2017-08-26T13:32:23.535Z,6.60
2017-08-26T13:33:29.379Z,6.32
2017-08-26T13:34:34.923Z,6.40
2017-08-26T13:35:40.744Z,6.10
2017-08-26T13:36:46.290Z,6.30
2017-08-26T13:37:52.157Z,6.28
2017-08-26T13:38:57.694Z,5.87
2017-08-26T13:40:03.547Z,6.90
2017-08-26T13:41:09.363Z,6.30
2017-08-26T13:42:15.698Z,5.50
2017-08-26T13:43:21.575Z,6.50
2017-08-26T13:44:27.127Z,5.97
2017-08-26T13:45:32.962Z,6.00
2017-08-26T13:46:38.497Z,5.37
2017-08-26T13:47:44.323Z,5.80
2017-08-26T13:48:50.175Z,6.35
2017-08-26T13:49:55.751Z,6.00
2017-08-26T13:51:01.291Z,5.17
2017-08-26T13:52:08.054Z,6.05
2017-08-26T13:53:13.893Z,7.00
2017-08-26T13:54:19.734Z,6.97
2017-08-26T13:55:25.295Z,6.80
2017-08-26T13:56:30.829Z,6.43
2017-08-26T13:57:36.376Z,6.47
2017-08-26T13:58:42.202Z,6.28
2017-08-26T13:59:47.892Z,8.60
2017-08-26T14:00:53.710Z,7.25
2017-08-26T14:01:59.249Z,6.47
2017-08-26T14:03:04.794Z,7.00
2017-08-26T14:04:10.360Z,6.67
2017-08-26T14:05:16.240Z,5.70
2017-08-26T14:06:22.059Z,7.07
2017-08-26T14:07:27.879Z,8.15
2017-08-26T14:08:33.682Z,7.37
2017-08-26T14:09:39.507Z,7.25
2017-08-26T14:10:46.070Z,7.87
2017-08-26T14:11:51.920Z,7.28
2017-08-26T14:12:57.762Z,8.52
2017-08-26T14:14:03.591Z,6.97
2017-08-26T14:15:09.118Z,7.83
2017-08-26T14:16:14.715Z,7.33
2017-08-26T14:17:20.255Z,7.83
2017-08-26T14:18:27.150Z,9.07
2017-08-26T14:19:35.278Z,9.20
2017-08-26T14:20:41.625Z,8.00
2017-08-26T14:21:49.139Z,8.40
2017-08-26T14:22:57.830Z,7.73
2017-08-26T14:24:04.197Z,8.00
2017-08-26T14:25:09.723Z,7.20
2017-08-26T14:26:16.470Z,9.00
2017-08-26T14:27:25.112Z,7.83